createdAt,value
2018-08-24T00:01:57.372Z,11.60
2018-08-24T00:04:26.753Z,11.83
2018-08-24T00:06:55.315Z,11.90
2018-08-24T00:09:24.120Z,11.93
2018-08-24T00:11:53.745Z,12.63
2018-08-24T00:14:22.890Z,12.17
2018-08-24T00:16:51.999Z,13.97
2018-08-24T00:19:20.915Z,12.63
2018-08-24T00:21:50.439Z,14.10
2018-08-24T00:24:19.982Z,12.03
2018-08-24T00:26:49.371Z,13.00
2018-08-24T00:29:18.146Z,15.47
2018-08-24T00:31:47.085Z,10.50
2018-08-24T00:34:16.329Z,10.80
2018-08-24T00:36:44.970Z,11.43
2018-08-24T00:39:13.817Z,10.77
2018-08-24T00:41:43.505Z,11.00
2018-08-24T00:44:12.732Z,12.85
2018-08-24T00:46:41.474Z,10.73
2018-08-24T00:49:10.292Z,10.60
2018-08-24T00:51:39.242Z,12.37
2018-08-24T00:54:08.125Z,26.90
2018-08-24T00:56:37.525Z,29.23
2018-08-24T00:59:06.322Z,22.53
2018-08-24T01:01:36.300Z,16.57
2018-08-24T01:04:05.312Z,19.20
2018-08-24T01:06:35.617Z,16.10
2018-08-24T01:09:06.764Z,14.17
2018-08-24T01:11:40.775Z,13.30
2018-08-24T01:14:10.342Z,14.05
2018-08-24T01:16:44.968Z,16.10
2018-08-24T01:19:13.538Z,9.55
2018-08-24T01:21:42.926Z,11.40
2018-08-24T01:24:11.458Z,13.30
2018-08-24T01:26:40.907Z,12.47
2018-08-24T01:29:10.176Z,9.15
2018-08-24T09:19:29.220Z,5.60
2018-08-24T09:22:03.053Z,6.13
2018-08-24T09:24:37.217Z,5.30
2018-08-24T09:27:12.141Z,7.40
2018-08-24T09:29:40.873Z,4.63
2018-08-24T09:32:10.790Z,6.70
2018-08-24T09:34:40.474Z,5.10
2018-08-24T09:37:14.369Z,5.10
2018-08-24T09:39:43.336Z,4.40
2018-08-24T09:42:12.877Z,3.83
2018-08-24T09:44:42.161Z,3.23
2018-08-24T09:47:16.045Z,3.73
2018-08-24T09:49:45.131Z,3.27
2018-08-24T09:52:19.158Z,3.73
2018-08-24T09:54:48.378Z,4.00
2018-08-24T09:57:17.663Z,3.40
2018-08-24T09:59:46.813Z,5.50
2018-08-24T10:02:20.639Z,7.90
2018-08-24T10:04:54.783Z,4.07
2018-08-24T10:07:28.569Z,4.73
2018-08-24T10:09:57.501Z,3.83
2018-08-24T10:12:26.625Z,4.30
2018-08-24T10:14:55.885Z,4.97
2018-08-24T10:17:26.777Z,3.97
2018-08-24T10:19:55.576Z,3.43
2018-08-24T10:22:24.665Z,5.83
2018-08-24T10:24:53.708Z,20.80
2018-08-24T10:27:23.228Z,21.37
2018-08-24T10:29:52.914Z,10.43
2018-08-24T10:32:21.869Z,7.93
2018-08-24T10:34:50.901Z,5.93
2018-08-24T10:37:19.894Z,4.87
2018-08-24T10:39:49.124Z,4.00
2018-08-24T10:42:19.231Z,4.10
2018-08-24T10:44:48.090Z,1.90
2018-08-24T10:47:16.836Z,2.50
2018-08-24T10:49:45.960Z,3.50
2018-08-24T10:52:15.055Z,3.37
2018-08-24T10:54:44.121Z,4.40
2018-08-24T10:57:13.658Z,3.10
2018-08-24T10:59:42.895Z,2.55
2018-08-24T11:02:12.885Z,2.00
2018-08-24T11:04:42.502Z,4.90
2018-08-24T11:07:12.453Z,3.60
2018-08-24T11:09:41.324Z,2.10
2018-08-24T11:12:10.759Z,6.43
2018-08-24T11:14:40.216Z,3.53
2018-08-24T11:17:09.071Z,2.83
2018-08-24T11:19:38.663Z,5.47
2018-08-24T11:22:08.095Z,1.37
2018-08-24T11:24:37.411Z,1.97
2018-08-24T11:27:06.252Z,2.60
2018-08-24T11:29:35.648Z,1.90
2018-08-24T11:32:04.733Z,5.43
2018-08-24T11:34:33.940Z,2.40
2018-08-24T11:37:02.814Z,2.83
2018-08-24T11:39:31.491Z,5.53
2018-08-24T11:42:00.741Z,5.20
2018-08-24T11:44:29.531Z,8.27
2018-08-24T11:46:58.340Z,8.00
2018-08-24T11:49:27.363Z,6.83
2018-08-24T11:51:56.537Z,7.90
2018-08-24T11:54:26.776Z,7.30
2018-08-24T11:56:56.185Z,9.03
2018-08-24T11:59:24.875Z,8.00
2018-08-24T12:01:53.617Z,7.97
2018-08-24T12:04:22.380Z,7.67
2018-08-24T12:06:50.930Z,7.17
2018-08-24T12:09:20.012Z,7.73
2018-08-24T12:11:49.475Z,6.93
2018-08-24T12:14:19.296Z,7.20
2018-08-24T12:16:48.050Z,7.70
2018-08-24T12:19:17.064Z,8.40
2018-08-24T12:21:46.423Z,6.40
2018-08-24T12:24:15.855Z,7.70
2018-08-24T12:26:44.719Z,6.00
2018-08-24T12:29:13.771Z,5.27
2018-08-24T12:31:43.139Z,7.07
2018-08-24T12:34:12.938Z,7.00
2018-08-24T12:36:41.846Z,5.90
2018-08-24T12:39:11.751Z,5.67
2018-08-24T12:41:40.987Z,5.93
2018-08-24T12:44:10.190Z,5.10
2018-08-24T12:46:39.466Z,6.33
2018-08-24T12:49:08.572Z,5.10
2018-08-24T12:51:37.840Z,4.00
2018-08-24T12:54:07.164Z,5.03
2018-08-24T12:56:37.254Z,3.97
2018-08-24T12:59:06.537Z,5.23
2018-08-24T13:01:35.640Z,4.23
2018-08-24T13:04:05.288Z,4.03
2018-08-24T13:06:34.153Z,4.03
2018-08-24T13:09:04.747Z,4.23
2018-08-24T13:11:33.567Z,4.13
2018-08-24T13:14:02.399Z,4.17
2018-08-24T13:16:31.068Z,5.17
2018-08-24T13:19:00.425Z,4.57
2018-08-24T13:21:29.687Z,3.90
2018-08-24T13:23:58.312Z,4.57
2018-08-24T13:26:27.841Z,4.13
2018-08-24T13:28:57.294Z,4.53
2018-08-24T13:31:26.546Z,4.40
2018-08-24T13:33:55.623Z,4.40
2018-08-24T13:36:24.415Z,4.27
2018-08-24T13:38:53.363Z,4.50
2018-08-24T13:41:23.026Z,4.80
2018-08-24T13:43:51.745Z,4.83
2018-08-24T13:46:22.382Z,4.77
2018-08-24T13:48:52.162Z,5.30
2018-08-24T13:51:21.039Z,5.60
2018-08-24T13:53:49.911Z,6.97
2018-08-24T13:56:18.615Z,8.33
2018-08-24T13:58:47.547Z,7.03
2018-08-24T14:01:16.197Z,8.77
2018-08-24T14:03:45.647Z,7.40
2018-08-24T14:06:14.496Z,8.50
2018-08-24T14:08:44.855Z,10.87
2018-08-24T14:11:14.795Z,9.37
2018-08-24T14:13:43.473Z,10.33
2018-08-24T14:16:12.628Z,10.97
2018-08-24T14:18:41.636Z,12.83
2018-08-24T14:21:10.889Z,10.30
2018-08-24T14:23:39.782Z,11.23
2018-08-24T14:26:08.489Z,12.37
2018-08-24T14:28:37.719Z,11.90
2018-08-24T14:31:06.510Z,12.83
2018-08-24T14:33:35.320Z,9.97
2018-08-24T14:36:04.216Z,10.77
2018-08-24T14:38:32.992Z,11.23
2018-08-24T14:41:01.718Z,10.77
2018-08-24T14:43:30.971Z,10.47
2018-08-24T14:45:59.780Z,11.03
2018-08-24T14:48:29.291Z,10.40
2018-08-24T14:50:57.960Z,11.13
2018-08-24T14:53:26.983Z,11.40
2018-08-24T14:55:56.101Z,12.20
2018-08-24T14:58:25.220Z,11.20
2018-08-24T15:00:54.115Z,14.50
2018-08-24T15:03:22.948Z,10.20
2018-08-24T15:05:51.956Z,11.73
2018-08-24T15:08:21.116Z,10.33
2018-08-24T15:10:50.385Z,14.87
2018-08-24T15:13:19.747Z,11.10
2018-08-24T15:15:48.591Z,10.03
2018-08-24T15:18:17.153Z,16.73
2018-08-24T15:20:46.304Z,11.30
2018-08-24T15:23:15.141Z,9.17
2018-08-24T15:25:44.791Z,10.40
2018-08-24T15:28:15.068Z,10.83
2018-08-24T15:30:44.772Z,14.93
2018-08-24T15:33:14.247Z,10.40
2018-08-24T15:35:44.371Z,9.87
2018-08-24T15:38:13.548Z,11.03
2018-08-24T15:40:43.273Z,9.20
2018-08-24T15:43:12.190Z,8.47
2018-08-24T15:45:41.081Z,9.73
2018-08-24T15:48:11.805Z,10.03
2018-08-24T15:50:41.964Z,8.10
2018-08-24T15:53:11.115Z,8.13
2018-08-24T15:55:41.151Z,9.13
2018-08-24T15:58:09.820Z,9.87
2018-08-24T16:00:38.690Z,9.07
2018-08-24T16:03:08.086Z,9.17
2018-08-24T16:05:38.235Z,8.53
2018-08-24T16:08:07.957Z,9.27
2018-08-24T16:10:38.731Z,16.70
2018-08-24T16:13:07.738Z,8.83
2018-08-24T16:15:36.687Z,11.57
2018-08-24T16:18:21.911Z,8.87
2018-08-24T16:20:52.145Z,12.07
2018-08-24T16:23:21.412Z,9.43
2018-08-24T16:25:50.162Z,8.70
2018-08-24T16:28:19.661Z,11.60
2018-08-24T16:30:48.860Z,14.90
2018-08-24T16:33:19.392Z,10.77
2018-08-24T16:35:48.260Z,8.63
2018-08-24T16:38:17.691Z,9.57
2018-08-24T16:40:46.932Z,9.20
2018-08-24T16:43:16.323Z,9.63
2018-08-24T16:45:45.286Z,13.03
2018-08-24T16:48:14.435Z,10.80
2018-08-24T16:50:43.610Z,17.13
2018-08-24T16:53:12.507Z,8.73
2018-08-24T16:55:42.675Z,10.63
2018-08-24T16:58:12.301Z,11.40
2018-08-24T17:00:41.242Z,23.27
2018-08-24T17:03:10.912Z,9.87
2018-08-24T17:05:39.893Z,13.30
2018-08-24T17:08:09.158Z,9.30
2018-08-24T17:10:39.403Z,12.40
2018-08-24T17:13:08.260Z,7.43
2018-08-24T17:15:38.730Z,10.07
2018-08-24T17:18:08.652Z,8.20
2018-08-24T17:20:38.331Z,10.47
2018-08-24T17:23:08.980Z,9.67
2018-08-24T17:25:37.970Z,11.53
2018-08-24T17:28:06.790Z,9.37
2018-08-24T17:30:36.089Z,9.00
2018-08-24T17:33:05.066Z,8.27
2018-08-24T17:35:33.870Z,8.30
2018-08-24T17:38:03.583Z,9.23
2018-08-24T17:40:32.195Z,7.07
2018-08-24T17:45:00.006Z,7.70
2018-08-24T17:47:29.836Z,17.93
2018-08-24T17:49:58.948Z,10.83
2018-08-24T17:52:27.783Z,10.57
2018-08-24T17:54:56.652Z,10.00
2018-08-24T17:57:26.488Z,10.47
2018-08-24T17:59:55.542Z,11.43
2018-08-24T18:02:24.359Z,11.80
2018-08-24T18:04:53.023Z,11.83
2018-08-24T18:07:22.224Z,9.87
2018-08-24T18:09:51.503Z,9.63
2018-08-24T18:12:20.528Z,9.20
2018-08-24T18:14:50.249Z,11.70
2018-08-24T18:17:19.296Z,8.90
2018-08-24T18:19:48.297Z,10.07
2018-08-24T18:22:17.207Z,16.43
2018-08-24T18:24:46.593Z,8.50
2018-08-24T18:27:17.262Z,10.70
2018-08-24T18:29:46.286Z,10.43
2018-08-24T18:33:04.896Z,12.13
2018-08-24T18:35:34.978Z,9.37
2018-08-24T18:38:04.197Z,7.80
2018-08-24T18:40:33.061Z,11.77
2018-08-24T18:43:03.001Z,11.33
2018-08-24T18:45:32.245Z,11.80
2018-08-24T18:48:01.645Z,9.90
2018-08-24T18:50:30.921Z,9.90
2018-08-24T18:53:00.028Z,14.90
2018-08-24T18:55:28.863Z,9.83
2018-08-24T18:57:57.680Z,11.00
2018-08-24T19:00:26.593Z,9.07
2018-08-24T19:02:56.156Z,7.67
2018-08-24T19:05:25.099Z,18.53
2018-08-24T19:08:09.948Z,13.73
2018-08-24T19:10:44.272Z,18.73
2018-08-24T19:13:15.817Z,10.20
2018-08-24T19:15:45.730Z,7.37
2018-08-24T19:18:19.833Z,10.00
2018-08-24T19:20:53.735Z,9.33
2018-08-24T19:23:23.930Z,9.50
2018-08-24T19:25:53.681Z,10.00
2018-08-24T19:28:27.651Z,8.23
2018-08-24T19:30:57.317Z,11.10
2018-08-24T19:33:26.431Z,11.13
2018-08-24T19:35:55.801Z,8.60
2018-08-24T19:38:27.848Z,7.80
2018-08-24T19:41:01.878Z,13.13
2018-08-24T19:43:31.235Z,27.10
2018-08-24T19:46:00.291Z,8.03
2018-08-24T19:49:32.488Z,8.07
2018-08-24T19:52:01.317Z,8.87
2018-08-24T19:54:30.562Z,9.30
2018-08-24T19:57:03.865Z,11.77
2018-08-24T19:59:32.762Z,7.30
2018-08-24T20:02:02.284Z,7.97
2018-08-24T20:04:31.428Z,8.77
2018-08-24T20:07:05.527Z,12.83
2018-08-24T20:09:40.522Z,10.93
2018-08-24T20:12:09.323Z,8.10
2018-08-24T20:14:44.093Z,8.73
2018-08-24T20:17:18.148Z,14.23
2018-08-24T20:19:47.191Z,9.60
2018-08-24T20:22:16.278Z,15.90
2018-08-24T20:24:45.519Z,10.10
2018-08-24T20:27:14.651Z,10.23
2018-08-24T20:29:43.637Z,12.43
2018-08-24T20:32:17.920Z,9.20
2018-08-24T20:34:49.191Z,7.93
2018-08-24T20:37:18.202Z,8.40
2018-08-24T20:39:47.505Z,9.70
2018-08-24T20:42:16.473Z,10.07
2018-08-24T20:44:45.697Z,7.97
2018-08-24T20:47:14.817Z,10.87
2018-08-24T20:49:45.874Z,10.73
2018-08-24T20:52:15.604Z,13.70
2018-08-24T20:54:46.472Z,12.33
2018-08-24T20:57:16.044Z,10.80
2018-08-24T20:59:45.571Z,11.60
2018-08-24T21:02:15.749Z,10.40
2018-08-24T21:04:44.957Z,8.57
2018-08-24T21:07:14.602Z,10.90
2018-08-24T21:09:43.579Z,8.77
2018-08-24T21:12:12.625Z,10.07
2018-08-24T21:14:41.582Z,8.67
2018-08-24T21:17:11.024Z,11.83
2018-08-24T21:19:40.079Z,11.90
2018-08-24T21:22:09.331Z,11.50
2018-08-24T21:24:38.626Z,9.63
2018-08-24T21:27:07.453Z,11.63
2018-08-24T21:29:36.755Z,10.43
2018-08-24T21:32:05.837Z,11.93
2018-08-24T21:34:35.405Z,12.30
2018-08-24T21:37:04.960Z,12.40
2018-08-24T21:39:34.455Z,10.63
2018-08-24T21:42:05.506Z,11.00
2018-08-24T21:44:35.045Z,15.73
2018-08-24T21:47:04.260Z,11.60
2018-08-24T21:49:33.428Z,16.30
2018-08-24T21:52:02.159Z,10.60
2018-08-24T21:54:31.133Z,12.07
2018-08-24T21:57:00.323Z,10.90
2018-08-24T21:59:29.182Z,11.10
2018-08-24T22:01:57.922Z,11.40
2018-08-24T22:04:28.023Z,10.03
2018-08-24T22:06:56.942Z,14.10
2018-08-24T22:09:25.684Z,12.17
2018-08-24T22:11:54.693Z,9.47
2018-08-24T22:14:23.423Z,14.70
2018-08-24T22:16:52.866Z,9.67
2018-08-24T22:19:21.558Z,15.33
2018-08-24T22:21:50.679Z,13.37
2018-08-24T22:24:19.525Z,12.27
2018-08-24T22:26:49.024Z,10.90
2018-08-24T22:29:17.724Z,10.80
2018-08-24T22:31:46.497Z,11.13
2018-08-24T22:34:16.593Z,11.60
2018-08-24T22:36:45.129Z,10.10
2018-08-24T22:39:14.242Z,10.47
2018-08-24T22:41:43.409Z,10.17
2018-08-24T22:44:12.064Z,10.70
2018-08-24T22:46:41.002Z,9.40
2018-08-24T22:49:10.488Z,12.87
2018-08-24T22:51:39.325Z,9.70
2018-08-24T22:54:08.173Z,9.90
2018-08-24T22:56:38.123Z,14.70
2018-08-24T22:59:07.227Z,9.67
2018-08-24T23:01:36.271Z,12.60
2018-08-24T23:04:06.834Z,12.13
2018-08-24T23:06:35.687Z,12.60
2018-08-24T23:09:06.839Z,12.30
2018-08-24T23:11:35.658Z,10.27
2018-08-24T23:14:05.135Z,10.43
2018-08-24T23:16:34.114Z,10.53
2018-08-24T23:19:02.888Z,11.30
2018-08-24T23:21:32.172Z,10.40
2018-08-24T23:24:00.772Z,9.43
2018-08-24T23:26:29.479Z,9.10
2018-08-24T23:28:58.257Z,14.03
2018-08-24T23:31:26.983Z,11.23
2018-08-24T23:33:56.068Z,10.43
2018-08-24T23:36:25.511Z,13.93
2018-08-24T23:38:54.449Z,11.90
2018-08-24T23:41:24.418Z,9.80
2018-08-24T23:43:53.079Z,10.40
2018-08-24T23:46:22.312Z,10.80
2018-08-24T23:48:52.307Z,12.63
2018-08-24T23:51:21.077Z,13.17
2018-08-24T23:53:50.077Z,9.63
2018-08-24T23:56:18.773Z,9.27
2018-08-24T23:58:48.353Z,10.67
